createdAt,value
2018-09-11T00:00:50.977Z,83.61
2018-09-11T00:03:19.593Z,83.25
2018-09-11T00:06:03.865Z,82.97
2018-09-11T00:08:32.298Z,82.45
2018-09-11T00:11:00.988Z,82.33
2018-09-11T00:13:29.464Z,82.40
2018-09-11T00:15:57.885Z,82.06
2018-09-11T00:18:26.533Z,81.75
2018-09-11T00:20:55.067Z,81.95
2018-09-11T00:23:23.553Z,82.31
2018-09-11T00:25:52.274Z,82.00
2018-09-11T00:28:20.866Z,81.92
2018-09-11T00:30:49.450Z,82.03
2018-09-11T00:33:17.918Z,82.55
2018-09-11T00:35:46.494Z,82.64
2018-09-11T00:38:14.926Z,82.42
2018-09-11T00:40:43.361Z,82.43
2018-09-11T00:43:11.848Z,82.32
2018-09-11T00:45:40.422Z,82.30
2018-09-11T00:48:09.218Z,82.23
2018-09-11T00:50:37.770Z,82.27
2018-09-11T00:53:06.266Z,82.66
2018-09-11T00:55:34.750Z,82.85
2018-09-11T00:58:03.331Z,83.00
2018-09-11T01:00:31.811Z,82.64
2018-09-11T01:03:00.345Z,82.71
2018-09-11T01:05:28.889Z,82.52
2018-09-11T01:07:57.356Z,81.83
2018-09-11T01:10:25.882Z,82.05
2018-09-11T01:12:54.432Z,81.88
2018-09-11T01:15:22.873Z,81.40
2018-09-11T01:17:51.309Z,81.19
2018-09-11T01:20:19.777Z,81.74
2018-09-11T01:22:48.251Z,82.15
2018-09-11T01:25:16.705Z,81.97
2018-09-11T01:27:45.212Z,81.48
2018-09-11T01:30:17.860Z,81.35
2018-09-11T01:32:46.370Z,81.84
2018-09-11T01:35:14.892Z,81.27
2018-09-11T01:37:43.444Z,81.43
2018-09-11T01:40:11.971Z,81.82
2018-09-11T01:42:40.513Z,81.87
2018-09-11T01:45:09.212Z,81.88
2018-09-11T01:47:37.652Z,81.84
2018-09-11T01:50:06.232Z,82.49
2018-09-11T01:52:34.684Z,82.43
2018-09-11T01:55:03.230Z,82.20
2018-09-11T01:57:31.717Z,82.29
2018-09-11T02:00:00.184Z,82.91
2018-09-11T02:02:28.670Z,82.43
2018-09-11T02:04:57.160Z,82.63
2018-09-11T02:07:25.728Z,82.78
2018-09-11T02:09:57.358Z,83.38
2018-09-11T02:12:25.844Z,83.03
2018-09-11T02:14:54.331Z,83.09
2018-09-11T02:17:22.873Z,83.65
2018-09-11T02:19:51.440Z,84.00
2018-09-11T02:22:20.004Z,84.02
2018-09-11T02:24:48.526Z,84.06
2018-09-11T02:27:17.080Z,83.61
2018-09-11T02:29:45.536Z,83.84
2018-09-11T02:32:14.061Z,83.13
2018-09-11T02:34:42.568Z,82.95
2018-09-11T02:37:11.215Z,82.61
2018-09-11T02:39:39.784Z,82.64
2018-09-11T02:42:08.293Z,82.19
2018-09-11T02:44:36.913Z,81.70
2018-09-11T02:47:05.475Z,81.10
2018-09-11T02:49:34.540Z,80.58
2018-09-11T02:52:03.457Z,80.48
2018-09-11T02:54:32.001Z,80.25
2018-09-11T02:57:00.497Z,80.75
2018-09-11T02:59:36.456Z,80.47
2018-09-11T03:02:05.224Z,80.27
2018-09-11T03:04:33.711Z,80.11
2018-09-11T03:07:02.213Z,79.56
2018-09-11T03:09:30.669Z,80.12
2018-09-11T03:11:59.209Z,79.40
2018-09-11T03:14:27.724Z,79.29
2018-09-11T03:16:56.182Z,79.45
2018-09-11T03:19:24.737Z,79.56
2018-09-11T03:21:53.359Z,79.22
2018-09-11T03:24:21.867Z,79.87
2018-09-11T03:27:03.565Z,79.67
2018-09-11T03:29:32.092Z,79.86
2018-09-11T03:32:17.642Z,79.46
2018-09-11T03:34:46.110Z,79.23
2018-09-11T03:37:14.686Z,79.36
2018-09-11T03:39:43.224Z,79.89
2018-09-11T03:42:11.802Z,79.68
2018-09-11T03:44:40.334Z,79.67
2018-09-11T03:47:10.461Z,79.78
2018-09-11T03:49:38.934Z,79.77
2018-09-11T03:52:07.433Z,79.37
2018-09-11T03:54:36.001Z,79.68
2018-09-11T03:57:04.689Z,79.67
2018-09-11T03:59:33.156Z,80.10
2018-09-11T04:02:01.670Z,79.82
2018-09-11T04:04:30.250Z,80.16
2018-09-11T04:06:58.920Z,79.95
2018-09-11T04:09:27.449Z,80.07
2018-09-11T04:11:55.887Z,79.95
2018-09-11T04:14:24.305Z,79.66
2018-09-11T04:16:52.739Z,79.48
2018-09-11T04:19:21.154Z,79.97
2018-09-11T04:21:49.598Z,80.09
2018-09-11T04:24:18.142Z,80.03
2018-09-11T04:26:46.628Z,79.74
2018-09-11T04:29:15.360Z,80.01
2018-09-11T04:31:43.853Z,80.23
2018-09-11T04:34:12.313Z,79.86
2018-09-11T04:36:40.804Z,80.33
2018-09-11T04:39:09.840Z,80.13
2018-09-11T04:41:38.484Z,79.90
2018-09-11T04:44:07.010Z,79.74
2018-09-11T04:46:35.441Z,79.73
2018-09-11T04:49:03.885Z,79.66
2018-09-11T04:51:32.328Z,79.76
2018-09-11T04:54:00.841Z,79.96
2018-09-11T04:56:29.476Z,80.00
2018-09-11T04:58:58.000Z,80.54
2018-09-11T05:01:26.416Z,80.78
2018-09-11T05:03:54.866Z,80.55
2018-09-11T05:06:23.311Z,80.50
2018-09-11T05:08:59.258Z,81.25
2018-09-11T05:11:27.750Z,81.29
2018-09-11T05:13:56.238Z,80.93
2018-09-11T05:16:24.777Z,81.43
2018-09-11T05:18:53.407Z,81.59
2018-09-11T05:21:22.097Z,82.07
2018-09-11T05:23:50.510Z,81.64
2018-09-11T05:26:18.927Z,82.09
2018-09-11T05:28:47.423Z,82.07
2018-09-11T05:31:15.954Z,82.58
2018-09-11T05:33:44.398Z,82.43
2018-09-11T05:36:13.077Z,82.30
2018-09-11T05:38:41.513Z,82.34
2018-09-11T05:41:10.027Z,82.72
2018-09-11T05:43:56.036Z,82.41
2018-09-11T05:46:24.517Z,82.64
2018-09-11T05:48:53.142Z,82.87
2018-09-11T05:51:21.788Z,83.00
2018-09-11T05:53:50.238Z,82.65
2018-09-11T05:56:18.763Z,83.31
2018-09-11T05:58:47.260Z,82.88
2018-09-11T06:01:15.818Z,82.96
2018-09-11T06:03:44.307Z,83.13
2018-09-11T06:06:12.757Z,83.21
2018-09-11T06:08:41.241Z,83.13
2018-09-11T06:11:09.782Z,83.19
2018-09-11T06:13:38.344Z,83.01
2018-09-11T06:16:07.085Z,83.04
2018-09-11T06:18:35.535Z,83.17
2018-09-11T06:21:04.221Z,82.96
2018-09-11T06:23:32.785Z,82.64
2018-09-11T06:26:01.240Z,82.83
2018-09-11T06:28:29.688Z,82.38
2018-09-11T06:30:58.312Z,82.63
2018-09-11T06:33:26.855Z,82.44
2018-09-11T06:35:55.362Z,81.84
2018-09-11T06:38:23.962Z,81.78
2018-09-11T06:40:52.447Z,81.68
2018-09-11T06:43:20.965Z,81.59
2018-09-11T06:45:49.597Z,81.42
2018-09-11T06:48:19.319Z,81.93
2018-09-11T06:50:47.839Z,81.28
2018-09-11T06:53:16.406Z,81.75
2018-09-11T06:55:44.882Z,81.23
2018-09-11T06:58:13.763Z,81.74
2018-09-11T07:00:42.395Z,81.13
2018-09-11T07:03:10.929Z,81.03
2018-09-11T07:05:39.413Z,80.82
2018-09-11T07:08:07.894Z,80.52
2018-09-11T07:10:36.552Z,80.18
2018-09-11T07:13:05.100Z,80.28
2018-09-11T07:15:33.550Z,80.18
2018-09-11T07:18:02.204Z,80.45
2018-09-11T07:20:30.750Z,79.50
2018-09-11T07:23:21.020Z,79.99
2018-09-11T07:25:49.480Z,79.01
2018-09-11T07:28:18.025Z,78.70
2018-09-11T07:30:47.790Z,78.49
2018-09-11T07:33:16.366Z,78.10
2018-09-11T07:35:44.909Z,78.19
2018-09-11T07:38:17.190Z,77.74
2018-09-11T07:40:46.072Z,77.21
2018-09-11T07:43:14.578Z,76.97
2018-09-11T07:45:43.072Z,76.90
2018-09-11T07:48:11.536Z,75.77
2018-09-11T07:50:40.049Z,75.45
2018-09-11T07:53:08.618Z,74.48
2018-09-11T07:55:37.116Z,74.33
2018-09-11T07:58:05.615Z,73.98
2018-09-11T08:00:34.453Z,73.92
2018-09-11T08:03:02.960Z,73.69
2018-09-11T08:05:31.471Z,72.62
2018-09-11T08:07:59.922Z,72.74
2018-09-11T08:10:28.394Z,72.70
2018-09-11T08:12:57.383Z,72.28
2018-09-11T08:15:25.933Z,71.55
2018-09-11T08:17:54.513Z,71.29
2018-09-11T08:20:22.945Z,71.69
2018-09-11T08:22:51.477Z,71.27
2018-09-11T08:25:20.017Z,70.43
2018-09-11T08:27:48.469Z,70.81
2018-09-11T08:30:17.074Z,70.41
2018-09-11T08:32:45.563Z,69.96
2018-09-11T08:35:14.065Z,69.76
2018-09-11T08:37:42.624Z,69.36
2018-09-11T08:40:11.085Z,69.28
2018-09-11T08:42:39.586Z,69.31
2018-09-11T08:45:08.212Z,68.64
2018-09-11T08:47:36.762Z,68.63
2018-09-11T08:50:05.249Z,68.42
2018-09-11T08:52:33.902Z,67.84
2018-09-11T08:55:02.327Z,67.02
2018-09-11T08:57:30.765Z,67.25
2018-09-11T08:59:59.267Z,66.86
2018-09-11T09:02:27.710Z,66.28
2018-09-11T09:04:56.601Z,65.35
2018-09-11T09:07:36.695Z,64.99
2018-09-11T09:10:05.539Z,64.83
2018-09-11T09:12:34.279Z,63.96
2018-09-11T09:15:02.773Z,63.63
2018-09-11T09:17:31.288Z,64.55
2018-09-11T09:19:59.838Z,64.04
2018-09-11T09:22:28.307Z,63.72
2018-09-11T09:24:57.092Z,63.80
2018-09-11T09:27:25.588Z,62.73
2018-09-11T09:29:56.268Z,62.08
2018-09-11T09:32:24.798Z,62.10
2018-09-11T09:34:53.259Z,61.89
2018-09-11T09:37:22.490Z,62.06
2018-09-11T09:39:50.946Z,62.05
2018-09-11T09:42:19.533Z,61.66
2018-09-11T09:44:48.222Z,62.01
2018-09-11T09:47:16.820Z,61.65
2018-09-11T09:49:45.589Z,61.28
2018-09-11T09:52:14.121Z,61.22
2018-09-11T09:54:42.671Z,61.57
2018-09-11T09:57:11.227Z,60.72
2018-09-11T09:59:39.640Z,60.42
2018-09-11T10:02:13.274Z,59.94
2018-09-11T10:04:41.892Z,59.96
2018-09-11T10:07:10.404Z,60.16
2018-09-11T10:09:38.844Z,59.99
2018-09-11T10:12:07.617Z,59.63
2018-09-11T10:14:36.162Z,58.79
2018-09-11T10:17:04.841Z,59.48
2018-09-11T10:19:33.411Z,58.23
2018-09-11T10:22:02.047Z,57.76
2018-09-11T10:24:30.478Z,58.01
2018-09-11T10:26:59.445Z,57.17
2018-09-11T10:29:27.943Z,56.35
2018-09-11T10:31:56.369Z,56.22
2018-09-11T10:34:25.992Z,56.30
2018-09-11T10:36:54.741Z,57.05
2018-09-11T10:39:23.521Z,56.11
2018-09-11T10:41:52.051Z,55.74
2018-09-11T10:44:20.629Z,55.78
2018-09-11T10:46:49.175Z,55.65
2018-09-11T10:49:17.673Z,54.93
2018-09-11T10:51:46.509Z,54.42
2018-09-11T10:54:15.036Z,53.78
2018-09-11T10:56:43.487Z,53.08
2018-09-11T10:59:12.030Z,53.90
2018-09-11T11:01:40.586Z,53.26
2018-09-11T11:04:09.464Z,53.94
2018-09-11T11:06:37.969Z,54.15
2018-09-11T11:09:08.853Z,52.48
2018-09-11T11:11:37.313Z,52.99
2018-09-11T11:14:05.957Z,52.63
2018-09-11T11:16:34.437Z,52.91
2018-09-11T11:19:02.944Z,52.16
2018-09-11T11:21:31.407Z,52.40
2018-09-11T11:23:59.916Z,51.86
2018-09-11T11:26:28.509Z,50.82
2018-09-11T11:29:00.665Z,51.74
2018-09-11T11:31:29.326Z,50.22
2018-09-11T11:33:57.798Z,49.83
2018-09-11T11:36:26.426Z,49.50
2018-09-11T11:38:54.742Z,48.87
2018-09-11T11:41:23.182Z,48.65
2018-09-11T11:43:51.728Z,48.07
2018-09-11T11:46:20.304Z,47.84
2018-09-11T11:48:48.722Z,48.14
2018-09-11T11:51:17.167Z,47.89
2018-09-11T11:53:45.652Z,48.15
2018-09-11T11:56:14.173Z,47.86
2018-09-11T11:58:46.591Z,47.33
2018-09-11T12:01:15.185Z,47.14
2018-09-11T12:03:43.620Z,46.51
2018-09-11T12:06:12.498Z,45.76
2018-09-11T12:08:41.048Z,45.49
2018-09-11T12:11:09.534Z,44.84
2018-09-11T12:13:37.985Z,44.71
2018-09-11T12:16:06.512Z,44.05
2018-09-11T12:18:34.976Z,43.74
2018-09-11T12:21:03.457Z,43.80
2018-09-11T12:23:31.942Z,43.67
2018-09-11T12:26:00.439Z,43.70
2018-09-11T12:28:28.900Z,43.39
2018-09-11T12:30:57.531Z,42.70
2018-09-11T12:33:26.055Z,41.00
2018-09-11T12:35:54.593Z,40.40
2018-09-11T12:38:23.129Z,40.16
2018-09-11T12:40:51.611Z,39.74
2018-09-11T12:43:20.105Z,39.61
2018-09-11T12:45:48.860Z,39.33
2018-09-11T12:48:17.805Z,38.53
2018-09-11T12:50:45.952Z,38.76
2018-09-11T12:53:14.372Z,38.46
2018-09-11T12:55:42.916Z,38.17
2018-09-11T12:58:11.390Z,38.63
2018-09-11T13:00:39.873Z,37.15
2018-09-11T13:03:08.393Z,35.91
2018-09-11T13:05:37.870Z,36.44
2018-09-11T13:08:06.438Z,36.46
2018-09-11T13:10:34.924Z,36.45
2018-09-11T13:13:03.504Z,35.89
2018-09-11T13:15:32.102Z,35.57
2018-09-11T13:18:00.555Z,35.06
2018-09-11T13:20:29.065Z,35.28
2018-09-11T13:22:57.633Z,35.63
2018-09-11T13:25:26.153Z,35.08
2018-09-11T13:27:54.701Z,34.79
2018-09-11T13:30:23.181Z,34.88
2018-09-11T13:32:51.736Z,34.79
2018-09-11T13:35:21.518Z,34.26
2018-09-11T13:37:50.145Z,33.10
2018-09-11T13:40:18.744Z,33.20
2018-09-11T13:42:47.229Z,33.66
2018-09-11T13:45:16.901Z,34.37
2018-09-11T13:47:45.388Z,34.30
2018-09-11T13:50:13.854Z,35.32
2018-09-11T13:52:43.633Z,34.07
2018-09-11T13:55:12.334Z,34.40
2018-09-11T13:57:42.320Z,34.46
2018-09-11T14:00:11.020Z,34.99
2018-09-11T14:02:39.974Z,34.30
2018-09-11T14:05:08.645Z,33.92
2018-09-11T14:07:37.225Z,33.74
2018-09-11T14:10:05.693Z,33.61
2018-09-11T14:12:34.240Z,33.57
2018-09-11T14:15:02.750Z,33.98
2018-09-11T14:17:31.300Z,33.10
2018-09-11T14:20:00.006Z,33.36
2018-09-11T14:22:28.472Z,33.92
2018-09-11T14:24:57.094Z,33.88
2018-09-11T14:27:25.683Z,33.31
2018-09-11T14:29:54.367Z,32.86
2018-09-11T14:32:22.897Z,33.13
2018-09-11T14:35:22.976Z,33.94
2018-09-11T14:37:51.551Z,34.30
2018-09-11T14:40:20.005Z,34.07
2018-09-11T14:43:02.722Z,34.42
2018-09-11T14:45:31.598Z,33.99
2018-09-11T14:48:00.085Z,34.68
2018-09-11T14:50:28.575Z,34.29
2018-09-11T14:52:57.126Z,34.19
2018-09-11T14:55:25.667Z,34.36
2018-09-11T14:57:54.518Z,34.36
2018-09-11T15:00:23.094Z,34.32
2018-09-11T15:02:51.625Z,34.41
2018-09-11T15:05:20.180Z,34.34
2018-09-11T15:07:48.705Z,34.27
2018-09-11T15:10:17.429Z,34.33
2018-09-11T15:12:45.909Z,33.96
2018-09-11T15:15:14.459Z,33.97
2018-09-11T15:17:43.870Z,33.99
2018-09-11T15:23:39.389Z,34.05
2018-09-11T15:26:07.981Z,34.55
2018-09-11T15:28:36.502Z,33.98
2018-09-11T15:31:05.119Z,34.61
2018-09-11T15:33:33.676Z,34.50
2018-09-11T15:36:02.265Z,34.68
2018-09-11T15:38:30.706Z,34.47
2018-09-11T15:40:59.144Z,34.43
2018-09-11T15:43:27.706Z,34.75
2018-09-11T15:45:56.208Z,34.54
2018-09-11T15:48:24.786Z,34.76
2018-09-11T15:50:53.348Z,34.11
2018-09-11T15:53:21.826Z,34.40
2018-09-11T15:55:50.339Z,33.98
2018-09-11T15:58:18.887Z,33.97
2018-09-11T16:00:47.331Z,33.89
2018-09-11T16:03:15.861Z,34.33
2018-09-11T16:05:44.669Z,34.11
2018-09-11T16:08:13.265Z,34.27
2018-09-11T16:10:42.046Z,34.01
2018-09-11T16:13:10.698Z,34.03
2018-09-11T16:15:39.177Z,34.34
2018-09-11T16:18:07.614Z,34.73
2018-09-11T16:20:36.071Z,34.06
2018-09-11T16:23:04.667Z,33.91
2018-09-11T16:25:33.251Z,33.89
2018-09-11T16:28:01.797Z,34.96
2018-09-11T16:30:30.387Z,35.21
2018-09-11T16:32:58.901Z,35.00
2018-09-11T16:35:27.439Z,35.41
2018-09-11T16:37:55.920Z,35.14
2018-09-11T16:40:24.399Z,35.60
2018-09-11T16:42:52.879Z,35.58
2018-09-11T16:45:21.390Z,36.24
2018-09-11T16:47:49.857Z,36.01
2018-09-11T16:50:18.573Z,36.71
2018-09-11T16:52:47.116Z,37.05
2018-09-11T16:55:15.604Z,36.85
2018-09-11T16:57:44.278Z,37.42
2018-09-11T17:00:24.332Z,36.64
2018-09-11T17:03:07.865Z,37.51
2018-09-11T17:05:36.352Z,37.19
2018-09-11T17:08:04.829Z,37.22
2018-09-11T17:10:33.566Z,37.66
2018-09-11T17:13:02.136Z,38.65
2018-09-11T17:15:30.688Z,38.46
2018-09-11T17:17:59.194Z,38.81
2018-09-11T17:20:27.797Z,39.37
2018-09-11T17:22:56.359Z,39.45
2018-09-11T17:25:24.933Z,39.56
2018-09-11T17:27:53.391Z,40.02
2018-09-11T17:30:21.981Z,40.39
2018-09-11T17:32:51.236Z,41.29
2018-09-11T17:35:19.790Z,40.96
2018-09-11T17:37:48.376Z,41.43
2018-09-11T17:40:17.077Z,42.15
2018-09-11T17:42:45.635Z,42.26
2018-09-11T17:45:14.350Z,42.34
2018-09-11T17:47:42.919Z,43.02
2018-09-11T17:50:11.526Z,43.05
2018-09-11T17:52:41.320Z,43.79
2018-09-11T17:55:09.881Z,43.68
2018-09-11T17:57:38.716Z,44.21
2018-09-11T18:00:07.323Z,44.94
2018-09-11T18:02:35.877Z,45.11
2018-09-11T18:05:04.933Z,45.37
2018-09-11T18:07:46.607Z,45.69
2018-09-11T18:10:15.153Z,46.09
2018-09-11T18:12:43.699Z,46.59
2018-09-11T18:15:13.405Z,46.93
2018-09-11T18:17:41.855Z,47.21
2018-09-11T18:20:10.461Z,47.24
2018-09-11T18:22:50.736Z,47.74
2018-09-11T18:25:19.310Z,48.16
2018-09-11T18:27:47.935Z,48.28
2018-09-11T18:30:16.546Z,48.33
2018-09-11T18:32:45.326Z,49.17
2018-09-11T18:35:29.397Z,49.60
2018-09-11T18:37:58.057Z,49.92
2018-09-11T18:40:26.567Z,49.63
2018-09-11T18:42:55.209Z,50.16
2018-09-11T18:45:23.798Z,49.94
2018-09-11T18:47:52.380Z,49.68
2018-09-11T18:50:20.954Z,50.29
2018-09-11T18:52:49.418Z,50.81
2018-09-11T18:55:18.137Z,50.91
2018-09-11T18:57:46.928Z,52.05
2018-09-11T19:00:15.443Z,51.86
2018-09-11T19:02:43.888Z,52.09
2018-09-11T19:05:12.570Z,53.10
2018-09-11T19:07:40.962Z,53.38
2018-09-11T19:10:09.637Z,53.87
2018-09-11T19:12:38.419Z,53.73
2018-09-11T19:15:06.954Z,53.44
2018-09-11T19:17:45.991Z,54.24
2018-09-11T19:20:14.531Z,54.32
2018-09-11T19:22:43.032Z,55.04
2018-09-11T19:25:11.546Z,55.56
2018-09-11T19:27:40.071Z,55.61
2018-09-11T19:30:10.444Z,55.36
2018-09-11T19:32:39.169Z,55.41
2018-09-11T19:35:15.553Z,54.87
2018-09-11T19:37:44.079Z,54.78
2018-09-11T19:40:12.536Z,54.74
2018-09-11T19:42:40.962Z,55.16
2018-09-11T19:45:19.283Z,55.61
2018-09-11T19:47:47.840Z,55.90
2018-09-11T19:50:16.508Z,55.69
2018-09-11T19:52:45.116Z,56.13
2018-09-11T19:55:13.689Z,55.62
2018-09-11T19:57:42.449Z,55.70
2018-09-11T20:00:10.986Z,56.67
2018-09-11T20:02:39.565Z,57.02
2018-09-11T20:05:08.030Z,56.68
2018-09-11T20:07:45.829Z,57.15
2018-09-11T20:10:14.578Z,57.37
2018-09-11T20:12:43.095Z,57.36
2018-09-11T20:15:11.600Z,57.87
2018-09-11T20:17:40.182Z,58.09
2018-09-11T20:20:08.766Z,58.21
2018-09-11T20:22:37.348Z,58.49
2018-09-11T20:25:05.965Z,58.74
2018-09-11T20:27:35.618Z,58.73
2018-09-11T20:30:04.134Z,58.60
2018-09-11T20:32:32.595Z,59.18
2018-09-11T20:35:01.126Z,58.64
2018-09-11T20:37:29.618Z,59.09
2018-09-11T20:39:58.102Z,58.91
2018-09-11T20:42:26.550Z,59.29
2018-09-11T20:44:55.088Z,59.51
2018-09-11T20:47:23.539Z,59.03
2018-09-11T20:50:31.070Z,59.59
2018-09-11T20:52:59.621Z,60.06
2018-09-11T20:55:28.179Z,60.55
2018-09-11T20:57:56.765Z,60.69
2018-09-11T21:00:25.326Z,62.01
2018-09-11T21:02:53.838Z,62.11
2018-09-11T21:05:22.311Z,62.80
2018-09-11T21:07:50.866Z,63.40
2018-09-11T21:10:19.462Z,63.25
2018-09-11T21:12:47.952Z,63.87
2018-09-11T21:15:16.553Z,63.94
2018-09-11T21:17:45.049Z,63.92
2018-09-11T21:20:57.286Z,64.20
2018-09-11T21:23:25.759Z,64.70
2018-09-11T21:25:54.286Z,64.91
2018-09-11T21:28:22.996Z,65.06
2018-09-11T21:31:03.851Z,64.89
2018-09-11T21:33:32.323Z,65.46
2018-09-11T21:39:57.285Z,64.98
2018-09-11T21:42:49.944Z,64.58
2018-09-11T21:45:18.444Z,64.90
2018-09-11T21:47:46.886Z,64.43
2018-09-11T21:50:18.375Z,64.20
2018-09-11T21:52:46.878Z,64.33
2018-09-11T21:55:15.349Z,64.87
2018-09-11T21:57:43.864Z,65.83
2018-09-11T22:00:13.273Z,67.05
2018-09-11T22:02:41.878Z,67.21
2018-09-11T22:05:10.957Z,68.01
2018-09-11T22:07:39.437Z,69.08
2018-09-11T22:10:09.291Z,69.08
2018-09-11T22:12:37.720Z,69.98
2018-09-11T22:15:06.530Z,70.09
2018-09-11T22:17:35.097Z,70.43
2018-09-11T22:20:03.872Z,70.03
2018-09-11T22:22:32.463Z,70.44
2018-09-11T22:25:01.152Z,70.62
2018-09-11T22:27:29.772Z,70.52
2018-09-11T22:29:58.437Z,70.70
2018-09-11T22:32:26.916Z,70.40
2018-09-11T22:34:55.560Z,70.40
2018-09-11T22:37:24.068Z,70.84
2018-09-11T22:39:52.513Z,70.86
2018-09-11T22:42:21.020Z,70.34
2018-09-11T22:44:49.523Z,69.98
2018-09-11T22:47:18.237Z,69.94
2018-09-11T22:49:46.695Z,70.33
2018-09-11T22:52:15.136Z,70.34
2018-09-11T22:54:43.614Z,70.09
2018-09-11T22:57:12.236Z,70.33
2018-09-11T22:59:40.712Z,70.29
2018-09-11T23:02:09.130Z,70.23
2018-09-11T23:04:37.563Z,70.45
2018-09-11T23:07:06.153Z,70.55
2018-09-11T23:09:34.686Z,70.97
2018-09-11T23:12:03.222Z,70.59
2018-09-11T23:14:31.646Z,70.99
2018-09-11T23:17:00.182Z,71.02
2018-09-11T23:19:28.836Z,70.71
2018-09-11T23:21:57.353Z,70.45
2018-09-11T23:24:25.813Z,70.67
2018-09-11T23:26:54.329Z,70.79
2018-09-11T23:29:22.900Z,70.91
2018-09-11T23:31:51.414Z,70.25
2018-09-11T23:34:19.900Z,70.64
2018-09-11T23:36:48.477Z,70.17
2018-09-11T23:39:17.123Z,70.49
2018-09-11T23:41:45.651Z,70.02
2018-09-11T23:44:14.177Z,69.77
2018-09-11T23:46:42.664Z,70.23
2018-09-11T23:49:11.200Z,70.04
2018-09-11T23:51:40.057Z,69.82
2018-09-11T23:54:08.529Z,69.27
2018-09-11T23:56:37.017Z,69.07
2018-09-11T23:59:05.615Z,69.31
